createdAt,value
2018-12-13T00:02:03.297Z,12.43
2018-12-13T00:04:36.560Z,13.10
2018-12-13T00:07:09.252Z,12.53
2018-12-13T00:09:42.563Z,12.43
2018-12-13T00:12:16.018Z,14.43
2018-12-13T00:14:49.194Z,13.47
2018-12-13T00:17:22.542Z,13.53
2018-12-13T00:19:55.934Z,13.67
2018-12-13T00:22:28.862Z,14.67
2018-12-13T00:25:02.658Z,15.00
2018-12-13T00:27:36.725Z,14.97
2018-12-13T00:30:11.210Z,15.77
2018-12-13T00:32:44.173Z,16.73
2018-12-13T00:35:17.015Z,16.17
2018-12-13T00:37:52.032Z,16.67
2018-12-13T00:40:25.103Z,17.27
2018-12-13T00:43:01.951Z,17.33
2018-12-13T00:45:36.431Z,18.10
2018-12-13T00:48:10.061Z,18.10
2018-12-13T00:50:43.564Z,20.07
2018-12-13T00:53:16.352Z,19.00
2018-12-13T00:55:49.254Z,19.67
2018-12-13T00:58:23.060Z,19.30
2018-12-13T01:01:00.859Z,18.80
2018-12-13T01:03:34.490Z,20.67
2018-12-13T01:06:07.640Z,20.57
2018-12-13T01:08:40.809Z,20.07
2018-12-13T01:11:13.398Z,21.80
2018-12-13T01:13:46.388Z,22.70
2018-12-13T01:16:23.140Z,20.60
2018-12-13T01:18:56.752Z,21.60
2018-12-13T01:21:29.379Z,22.77
2018-12-13T01:24:02.108Z,23.17
2018-12-13T01:26:34.748Z,25.17
2018-12-13T01:29:08.126Z,22.60
2018-12-13T01:31:42.613Z,23.87
2018-12-13T01:34:15.472Z,22.33
2018-12-13T01:36:52.364Z,23.53
2018-12-13T01:39:25.368Z,25.10
2018-12-13T01:41:57.920Z,24.70
2018-12-13T01:44:31.200Z,26.10
2018-12-13T01:47:05.763Z,24.17
2018-12-13T01:49:39.321Z,24.30
2018-12-13T01:52:12.426Z,25.23
2018-12-13T01:54:45.939Z,24.13
2018-12-13T01:57:18.938Z,24.50
2018-12-13T01:59:52.112Z,24.47
2018-12-13T02:02:24.874Z,23.37
2018-12-13T02:05:00.095Z,24.63
2018-12-13T02:07:34.664Z,24.17
2018-12-13T02:10:10.779Z,24.13
2018-12-13T02:12:45.611Z,23.43
2018-12-13T02:15:20.222Z,22.27
2018-12-13T02:17:54.827Z,21.53
2018-12-13T02:20:29.419Z,22.53
2018-12-13T02:23:04.358Z,22.07
2018-12-13T02:25:38.914Z,23.20
2018-12-13T02:28:13.568Z,22.23
2018-12-13T02:30:48.010Z,21.90
2018-12-13T02:33:22.672Z,24.20
2018-12-13T02:35:58.196Z,21.00
2018-12-13T02:38:33.063Z,21.53
2018-12-13T02:41:08.346Z,21.03
2018-12-13T02:43:43.053Z,20.90
2018-12-13T02:46:17.634Z,19.07
2018-12-13T02:49:02.316Z,19.57
2018-12-13T02:51:37.190Z,20.83
2018-12-13T02:54:11.825Z,21.40
2018-12-13T02:56:46.354Z,18.97
2018-12-13T02:59:21.078Z,19.57
2018-12-13T03:01:55.540Z,19.83
2018-12-13T03:04:30.122Z,18.03
2018-12-13T03:07:04.866Z,18.43
2018-12-13T03:09:39.515Z,17.97
2018-12-13T03:12:14.231Z,18.73
2018-12-13T03:14:48.823Z,16.90
2018-12-13T03:17:23.629Z,18.80
2018-12-13T03:19:58.147Z,18.37
2018-12-13T03:22:32.740Z,17.80
2018-12-13T03:25:07.766Z,17.40
2018-12-13T03:27:42.597Z,19.10
2018-12-13T03:30:17.127Z,18.03
2018-12-13T03:32:51.907Z,18.10
2018-12-13T03:35:26.513Z,18.93
2018-12-13T03:38:01.160Z,18.63
2018-12-13T03:40:36.188Z,18.47
2018-12-13T03:43:10.825Z,18.70
2018-12-13T03:45:44.156Z,18.47
2018-12-13T03:48:16.811Z,18.27
2018-12-13T03:50:49.483Z,18.20
2018-12-13T03:53:22.950Z,17.57
2018-12-13T03:55:56.061Z,19.13
2018-12-13T03:58:28.628Z,19.93
2018-12-13T04:01:01.274Z,19.00
2018-12-13T04:03:33.948Z,20.07
2018-12-13T04:06:06.973Z,19.53
2018-12-13T04:08:39.521Z,21.07
2018-12-13T04:11:12.374Z,20.43
2018-12-13T04:13:45.005Z,19.90
2018-12-13T04:16:18.079Z,19.97
2018-12-13T04:18:50.781Z,19.60
2018-12-13T04:21:23.349Z,19.40
2018-12-13T04:23:55.932Z,21.17
2018-12-13T04:26:28.558Z,19.80
2018-12-13T04:29:01.132Z,21.37
2018-12-13T04:31:33.951Z,20.30
2018-12-13T04:34:06.664Z,19.40
2018-12-13T04:36:39.429Z,20.17
2018-12-13T04:39:11.968Z,21.30
2018-12-13T04:41:45.343Z,20.73
2018-12-13T04:44:18.069Z,20.23
2018-12-13T04:46:51.053Z,21.43
2018-12-13T04:49:23.948Z,19.70
2018-12-13T04:51:56.724Z,19.77
2018-12-13T04:54:29.449Z,20.33
2018-12-13T04:57:02.111Z,21.63
2018-12-13T04:59:34.840Z,19.93
2018-12-13T05:02:07.442Z,20.60
2018-12-13T05:04:39.795Z,19.83
2018-12-13T05:07:12.356Z,20.27
2018-12-13T05:09:44.892Z,19.33
2018-12-13T05:12:17.700Z,20.33
2018-12-13T05:14:50.436Z,20.50
2018-12-13T05:17:23.552Z,20.70
2018-12-13T05:19:56.495Z,20.47
2018-12-13T05:22:29.113Z,18.10
2018-12-13T05:25:02.472Z,21.10
2018-12-13T05:27:35.029Z,17.77
2018-12-13T05:30:07.890Z,21.03
2018-12-13T05:32:40.706Z,20.77
2018-12-13T05:35:13.405Z,21.17
2018-12-13T05:37:48.351Z,20.80
2018-12-13T05:40:20.615Z,20.30
2018-12-13T05:42:53.167Z,19.67
2018-12-13T05:45:25.755Z,20.30
2018-12-13T05:47:58.238Z,20.20
2018-12-13T05:50:30.656Z,20.30
2018-12-13T05:53:03.268Z,22.37
2018-12-13T05:55:36.279Z,21.77
2018-12-13T05:58:09.647Z,20.83
2018-12-13T06:00:42.275Z,21.90
2018-12-13T06:03:14.772Z,21.77
2018-12-13T06:05:47.250Z,21.33
2018-12-13T06:08:19.986Z,22.60
2018-12-13T06:10:52.641Z,21.53
2018-12-13T06:13:25.435Z,20.67
2018-12-13T06:15:58.383Z,20.53
2018-12-13T06:18:31.226Z,21.80
2018-12-13T06:21:04.148Z,20.17
2018-12-13T06:23:36.665Z,22.23
2018-12-13T06:26:09.304Z,20.83
2018-12-13T06:28:41.947Z,20.93
2018-12-13T06:31:14.732Z,22.60
2018-12-13T06:33:47.350Z,21.67
2018-12-13T06:36:19.970Z,20.90
2018-12-13T06:38:52.348Z,21.30
2018-12-13T06:41:25.004Z,21.60
2018-12-13T06:43:57.837Z,20.60
2018-12-13T06:46:31.411Z,22.37
2018-12-13T06:49:04.033Z,21.07
2018-12-13T06:51:36.805Z,19.80
2018-12-13T06:54:10.041Z,21.63
2018-12-13T06:56:42.755Z,20.97
2018-12-13T06:59:15.520Z,21.00
2018-12-13T07:01:48.295Z,20.03
2018-12-13T07:04:20.929Z,20.73
2018-12-13T07:06:53.810Z,21.13
2018-12-13T07:09:26.430Z,20.40
2018-12-13T07:11:59.027Z,19.33
2018-12-13T07:14:31.731Z,17.87
2018-12-13T07:17:04.641Z,18.67
2018-12-13T07:19:37.476Z,20.20
2018-12-13T07:22:10.204Z,19.50
2018-12-13T07:24:43.107Z,17.30
2018-12-13T07:27:15.925Z,17.00
2018-12-13T07:29:48.626Z,17.60
2018-12-13T07:32:21.316Z,16.80
2018-12-13T07:34:53.979Z,16.77
2018-12-13T07:37:26.464Z,17.97
2018-12-13T07:39:59.518Z,17.83
2018-12-13T07:42:32.171Z,18.53
2018-12-13T07:45:05.645Z,17.53
2018-12-13T07:47:38.245Z,16.43
2018-12-13T07:50:10.912Z,17.53
2018-12-13T07:52:43.546Z,15.70
2018-12-13T07:55:16.094Z,17.00
2018-12-13T07:57:49.291Z,17.07
2018-12-13T08:00:21.744Z,16.73
2018-12-13T08:02:54.310Z,17.63
2018-12-13T08:05:26.755Z,17.47
2018-12-13T08:07:59.391Z,17.00
2018-12-13T08:10:32.354Z,17.17
2018-12-13T08:13:05.014Z,17.23
2018-12-13T08:15:37.523Z,18.43
2018-12-13T08:18:10.278Z,17.43
2018-12-13T08:20:42.772Z,17.37
2018-12-13T08:23:20.230Z,16.07
2018-12-13T08:25:52.925Z,15.90
2018-12-13T08:28:25.375Z,16.67
2018-12-13T08:30:57.817Z,15.57
2018-12-13T08:33:30.431Z,15.80
2018-12-13T08:36:02.934Z,15.50
2018-12-13T08:38:35.366Z,15.77
2018-12-13T08:41:08.260Z,14.70
2018-12-13T08:43:40.994Z,17.90
2018-12-13T08:46:14.493Z,16.80
2018-12-13T08:48:47.130Z,17.63
2018-12-13T08:51:19.633Z,16.97
2018-12-13T08:53:52.124Z,17.87
2018-12-13T08:56:24.739Z,16.70
2018-12-13T08:58:57.322Z,17.03
2018-12-13T09:01:29.987Z,16.53
2018-12-13T09:04:02.758Z,18.90
2018-12-13T09:06:35.731Z,16.37
2018-12-13T09:09:08.422Z,15.33
2018-12-13T09:11:41.693Z,14.63
2018-12-13T09:14:14.395Z,16.50
2018-12-13T09:16:47.340Z,16.53
2018-12-13T09:19:20.749Z,15.87
2018-12-13T09:21:53.240Z,15.03
2018-12-13T09:24:26.513Z,14.70
2018-12-13T09:26:59.036Z,14.67
2018-12-13T09:29:31.697Z,15.87
2018-12-13T09:32:04.733Z,15.07
2018-12-13T09:34:37.892Z,14.80
2018-12-13T09:37:10.381Z,16.17
2018-12-13T09:39:43.084Z,15.87
2018-12-13T09:42:15.729Z,16.37
2018-12-13T09:44:48.919Z,15.07
2018-12-13T09:47:21.575Z,13.27
2018-12-13T09:49:54.198Z,14.73
2018-12-13T09:52:26.831Z,15.00
2018-12-13T09:55:05.474Z,13.20
2018-12-13T09:57:34.943Z,14.20
2018-12-13T10:00:11.357Z,14.47
2018-12-13T10:02:45.114Z,14.53
2018-12-13T10:05:19.476Z,13.67
2018-12-13T10:07:52.296Z,13.50
2018-12-13T10:10:25.016Z,15.00
2018-12-13T10:12:57.620Z,15.43
2018-12-13T10:15:32.231Z,15.87
2018-12-13T10:18:04.817Z,14.37
2018-12-13T10:20:37.271Z,15.17
2018-12-13T10:23:09.761Z,15.17
2018-12-13T10:25:42.166Z,14.93
2018-12-13T10:28:15.897Z,14.47
2018-12-13T10:30:48.925Z,15.00
2018-12-13T10:33:21.446Z,14.13
2018-12-13T10:35:55.019Z,12.73
2018-12-13T10:38:27.838Z,13.40
2018-12-13T10:41:01.156Z,13.37
2018-12-13T10:43:33.845Z,14.33
2018-12-13T10:46:07.031Z,14.47
2018-12-13T10:48:39.657Z,16.07
2018-12-13T10:51:12.239Z,14.90
2018-12-13T10:53:44.831Z,15.73
2018-12-13T10:56:17.257Z,14.67
2018-12-13T10:58:49.696Z,15.47
2018-12-13T11:01:28.015Z,14.80
2018-12-13T11:04:00.674Z,14.93
2018-12-13T11:06:33.414Z,14.63
2018-12-13T11:09:06.436Z,15.33
2018-12-13T11:11:38.953Z,14.83
2018-12-13T11:14:11.630Z,13.53
2018-12-13T11:16:44.989Z,14.70
2018-12-13T11:19:17.384Z,13.17
2018-12-13T11:21:49.975Z,13.77
2018-12-13T11:24:22.453Z,12.97
2018-12-13T11:27:01.913Z,13.03
2018-12-13T11:29:46.128Z,12.93
2018-12-13T11:32:18.732Z,12.97
2018-12-13T11:34:51.174Z,12.43
2018-12-13T11:37:23.940Z,12.80
2018-12-13T11:39:56.454Z,12.70
2018-12-13T11:42:29.327Z,12.87
2018-12-13T11:45:02.247Z,13.27
2018-12-13T11:47:34.612Z,12.80
2018-12-13T11:50:08.351Z,13.93
2018-12-13T11:52:42.476Z,14.07
2018-12-13T11:55:27.807Z,14.37
2018-12-13T11:58:00.859Z,13.80
2018-12-13T12:00:33.613Z,13.90
2018-12-13T12:03:06.431Z,13.30
2018-12-13T12:05:39.050Z,14.30
2018-12-13T12:08:11.620Z,13.40
2018-12-13T12:10:50.515Z,14.43
2018-12-13T12:13:24.695Z,14.43
2018-12-13T12:15:57.436Z,15.17
2018-12-13T12:18:31.029Z,14.93
2018-12-13T12:21:04.968Z,14.23
2018-12-13T12:23:38.252Z,15.07
2018-12-13T12:26:12.188Z,13.90
2018-12-13T12:28:45.222Z,14.57
2018-12-13T12:31:19.686Z,15.10
2018-12-13T12:33:54.260Z,14.70
2018-12-13T12:36:30.430Z,15.60
2018-12-13T12:39:07.471Z,15.43
2018-12-13T12:41:42.706Z,15.20
2018-12-13T12:44:17.044Z,15.90
2018-12-13T12:46:49.685Z,16.17
2018-12-13T12:49:22.156Z,15.60
2018-12-13T12:51:55.751Z,14.80
2018-12-13T12:54:28.565Z,16.60
2018-12-13T12:57:01.176Z,14.43
2018-12-13T12:59:33.975Z,14.27
2018-12-13T13:02:06.990Z,14.33
2018-12-13T13:04:39.625Z,15.17
2018-12-13T13:07:13.254Z,14.80
2018-12-13T13:09:45.740Z,15.63
2018-12-13T13:12:18.705Z,15.03
2018-12-13T13:14:51.305Z,14.23
2018-12-13T13:17:23.861Z,13.20
2018-12-13T13:19:56.419Z,13.70
2018-12-13T13:22:28.866Z,12.67
2018-12-13T13:25:01.721Z,13.70
2018-12-13T13:27:34.396Z,14.60
2018-12-13T13:30:08.215Z,13.77
2018-12-13T13:32:40.720Z,14.07
2018-12-13T13:35:13.210Z,14.13
2018-12-13T13:37:45.767Z,14.17
2018-12-13T13:40:18.274Z,13.67
2018-12-13T13:42:50.760Z,14.40
2018-12-13T13:45:23.939Z,13.63
2018-12-13T13:47:56.414Z,13.63
2018-12-13T13:50:29.008Z,14.40
2018-12-13T13:53:01.468Z,14.03
2018-12-13T13:55:34.984Z,13.97
2018-12-13T13:58:07.556Z,13.40
2018-12-13T14:00:40.051Z,12.73
2018-12-13T14:03:12.477Z,13.90
2018-12-13T14:05:45.164Z,12.60
2018-12-13T14:08:17.669Z,13.50
2018-12-13T14:10:50.631Z,14.50
2018-12-13T14:13:24.876Z,13.03
2018-12-13T14:15:57.776Z,14.93
2018-12-13T14:18:30.320Z,13.77
2018-12-13T14:21:03.089Z,13.23
2018-12-13T14:23:35.679Z,13.27
2018-12-13T14:26:08.550Z,14.53
2018-12-13T14:28:41.277Z,14.50
2018-12-13T14:31:14.057Z,13.97
2018-12-13T14:33:46.616Z,14.50
2018-12-13T14:36:19.460Z,14.73
2018-12-13T14:38:53.071Z,15.03
2018-12-13T14:41:26.023Z,13.00
2018-12-13T14:43:58.862Z,13.83
2018-12-13T14:46:31.788Z,13.87
2018-12-13T14:49:04.447Z,14.63
2018-12-13T14:51:37.323Z,14.03
2018-12-13T14:54:09.933Z,13.40
2018-12-13T14:56:42.515Z,15.13
2018-12-13T14:59:15.287Z,14.27
2018-12-13T15:01:47.972Z,13.57
2018-12-13T15:04:20.430Z,14.53
2018-12-13T15:06:53.313Z,12.97
2018-12-13T15:09:26.244Z,12.70
2018-12-13T15:11:58.857Z,13.87
2018-12-13T15:14:31.397Z,13.57
2018-12-13T15:17:04.000Z,14.03
2018-12-13T15:19:36.601Z,13.60
2018-12-13T15:22:10.124Z,14.73
2018-12-13T15:24:42.828Z,13.13
2018-12-13T15:27:16.471Z,12.60
2018-12-13T15:29:49.921Z,12.87
2018-12-13T15:32:22.525Z,14.57
2018-12-13T15:34:55.084Z,14.10
2018-12-13T15:37:27.705Z,14.03
2018-12-13T15:40:00.565Z,13.77
2018-12-13T15:42:33.139Z,12.47
2018-12-13T15:45:06.766Z,13.43
2018-12-13T15:47:39.556Z,12.50
2018-12-13T15:50:12.849Z,12.93
2018-12-13T15:52:45.470Z,14.37
2018-12-13T15:55:18.859Z,12.87
2018-12-13T15:57:51.368Z,13.83
2018-12-13T16:00:23.955Z,12.97
2018-12-13T16:02:56.510Z,13.93
2018-12-13T16:05:29.194Z,14.20
2018-12-13T16:08:01.736Z,14.00
2018-12-13T16:10:34.943Z,14.40
2018-12-13T16:13:07.473Z,13.47
2018-12-13T16:15:41.338Z,12.17
2018-12-13T16:18:13.788Z,11.37
2018-12-13T16:20:47.316Z,10.83
2018-12-13T16:23:19.854Z,10.83
2018-12-13T16:25:52.581Z,11.33
2018-12-13T16:28:25.603Z,11.83
2018-12-13T16:30:58.138Z,10.40
2018-12-13T16:33:30.997Z,10.40
2018-12-13T16:36:03.727Z,11.57
2018-12-13T16:38:36.339Z,11.23
2018-12-13T16:41:09.023Z,10.87
2018-12-13T16:43:42.270Z,10.20
2018-12-13T16:46:15.846Z,16.20
2018-12-13T16:48:48.439Z,12.27
2018-12-13T16:51:21.291Z,11.20
2018-12-13T16:53:54.266Z,11.23
2018-12-13T16:56:27.112Z,10.67
2018-12-13T16:58:59.736Z,11.67
2018-12-13T17:01:32.679Z,11.77
2018-12-13T17:04:05.787Z,11.03
2018-12-13T17:06:38.665Z,11.13
2018-12-13T17:09:11.462Z,11.03
2018-12-13T17:11:44.091Z,11.83
2018-12-13T17:14:16.748Z,10.73
2018-12-13T17:16:49.931Z,12.00
2018-12-13T17:19:22.589Z,11.47
2018-12-13T17:21:55.110Z,12.60
2018-12-13T17:24:27.664Z,11.70
2018-12-13T17:27:01.311Z,13.20
2018-12-13T17:29:34.053Z,12.80
2018-12-13T17:32:07.039Z,13.67
2018-12-13T17:34:39.631Z,13.10
2018-12-13T17:37:12.114Z,13.77
2018-12-13T17:39:44.750Z,15.10
2018-12-13T17:42:17.503Z,16.03
2018-12-13T17:44:50.400Z,13.90
2018-12-13T17:47:23.160Z,13.87
2018-12-13T17:49:55.984Z,13.97
2018-12-13T17:52:28.627Z,12.90
2018-12-13T17:55:01.406Z,13.00
2018-12-13T17:57:33.989Z,12.33
2018-12-13T18:00:09.135Z,11.63
2018-12-13T18:02:41.897Z,13.20
2018-12-13T18:05:14.416Z,14.40
2018-12-13T18:07:47.307Z,13.63
2018-12-13T18:10:20.265Z,12.83
2018-12-13T18:12:53.116Z,13.63
2018-12-13T18:15:25.826Z,13.27
2018-12-13T18:17:58.466Z,13.47
2018-12-13T18:20:31.374Z,14.40
2018-12-13T18:23:04.082Z,14.00
2018-12-13T18:25:36.662Z,14.33
2018-12-13T18:28:09.316Z,12.77
2018-12-13T18:30:42.822Z,12.23
2018-12-13T18:33:15.390Z,13.67
2018-12-13T18:35:48.027Z,14.27
2018-12-13T18:38:20.677Z,13.73
2018-12-13T18:40:53.459Z,14.00
2018-12-13T18:43:26.052Z,13.13
2018-12-13T18:45:58.606Z,17.70
2018-12-13T18:48:31.277Z,14.13
2018-12-13T18:51:05.269Z,13.57
2018-12-13T18:53:38.029Z,13.77
2018-12-13T18:56:10.670Z,13.17
2018-12-13T18:58:43.090Z,13.23
2018-12-13T19:01:15.485Z,14.60
2018-12-13T19:03:48.243Z,13.70
2018-12-13T19:06:20.834Z,13.23
2018-12-13T19:08:53.462Z,13.10
2018-12-13T19:11:26.295Z,13.17
2018-12-13T19:13:58.772Z,13.43
2018-12-13T19:16:31.219Z,13.27
2018-12-13T19:19:03.865Z,12.87
2018-12-13T19:21:36.385Z,14.43
2018-12-13T19:24:09.985Z,13.30
2018-12-13T19:26:42.505Z,13.23
2018-12-13T19:29:15.034Z,13.30
2018-12-13T19:31:47.837Z,12.40
2018-12-13T19:34:20.296Z,13.97
2018-12-13T19:36:52.755Z,13.43
2018-12-13T19:39:25.406Z,14.30
2018-12-13T19:41:57.944Z,14.30
2018-12-13T19:44:30.582Z,15.50
2018-12-13T19:47:03.333Z,14.53
2018-12-13T19:49:35.983Z,15.00
2018-12-13T19:52:08.777Z,16.57
2018-12-13T19:55:12.561Z,18.10
2018-12-13T19:57:45.233Z,14.40
2018-12-13T20:00:18.287Z,14.50
2018-12-13T20:02:50.968Z,14.37
2018-12-13T20:05:23.979Z,14.87
2018-12-13T20:07:56.353Z,15.77
2018-12-13T20:10:29.008Z,16.27
2018-12-13T20:13:01.861Z,15.43
2018-12-13T20:15:34.360Z,16.03
2018-12-13T20:18:07.016Z,16.47
2018-12-13T20:20:39.789Z,15.27
2018-12-13T20:23:12.568Z,14.80
2018-12-13T20:25:45.111Z,17.40
2018-12-13T20:28:18.024Z,15.63
2018-12-13T20:30:50.814Z,16.07
2018-12-13T20:33:23.410Z,15.40
2018-12-13T20:35:56.262Z,15.00
2018-12-13T20:38:29.138Z,14.70
2018-12-13T20:41:01.632Z,14.80
2018-12-13T20:43:34.178Z,13.80
2018-12-13T20:46:07.625Z,12.67
2018-12-13T20:48:40.012Z,14.43
2018-12-13T20:51:12.531Z,13.60
2018-12-13T20:53:45.374Z,13.40
2018-12-13T20:56:17.944Z,13.43
2018-12-13T20:58:50.499Z,13.37
2018-12-13T21:01:23.886Z,13.63
2018-12-13T21:03:56.694Z,13.40
2018-12-13T21:06:29.376Z,14.10
2018-12-13T21:09:02.389Z,13.00
2018-12-13T21:11:35.783Z,12.73
2018-12-13T21:14:08.482Z,12.67
2018-12-13T21:16:41.387Z,12.60
2018-12-13T21:19:13.971Z,13.47
2018-12-13T21:21:47.355Z,13.10
2018-12-13T21:24:19.814Z,12.77
2018-12-13T21:26:52.434Z,13.00
2018-12-13T21:29:25.578Z,12.20
2018-12-13T21:31:58.622Z,12.73
2018-12-13T21:34:31.322Z,12.67
2018-12-13T21:37:04.155Z,11.10
2018-12-13T21:39:36.647Z,11.93
2018-12-13T21:42:09.424Z,12.53
2018-12-13T21:44:42.228Z,12.57
2018-12-13T21:47:16.119Z,13.17
2018-12-13T21:49:48.792Z,12.07
2018-12-13T21:52:21.574Z,12.70
2018-12-13T21:54:55.005Z,12.47
2018-12-13T21:57:27.537Z,13.50
2018-12-13T22:00:00.029Z,13.10
2018-12-13T22:02:32.897Z,13.40
2018-12-13T22:05:05.900Z,12.53
2018-12-13T22:07:39.254Z,12.83
2018-12-13T22:10:12.200Z,13.53
2018-12-13T22:12:45.245Z,13.63
2018-12-13T22:15:18.016Z,13.77
2018-12-13T22:20:37.547Z,13.50
2018-12-13T22:23:10.148Z,13.43
2018-12-13T22:25:42.826Z,13.30
2018-12-13T22:28:15.559Z,12.90
2018-12-13T22:30:48.178Z,12.87
2018-12-13T22:33:20.730Z,12.97
2018-12-13T22:35:53.170Z,13.43
2018-12-13T22:38:25.787Z,12.93
2018-12-13T22:40:58.486Z,12.40
2018-12-13T22:43:32.168Z,13.90
2018-12-13T22:46:04.790Z,15.13
2018-12-13T22:48:37.186Z,14.57
2018-12-13T22:51:09.777Z,14.57
2018-12-13T22:53:42.315Z,13.70
2018-12-13T22:56:15.035Z,14.30
2018-12-13T22:58:47.686Z,14.63
2018-12-13T23:01:20.402Z,13.53
2018-12-13T23:03:53.250Z,14.47
2018-12-13T23:06:26.471Z,15.33
2018-12-13T23:08:59.621Z,14.80
2018-12-13T23:11:32.821Z,14.43
2018-12-13T23:14:06.701Z,15.27
2018-12-13T23:16:40.849Z,14.20
2018-12-13T23:19:15.689Z,15.50
2018-12-13T23:21:48.253Z,14.87
2018-12-13T23:24:21.743Z,14.47
2018-12-13T23:26:55.243Z,15.47
2018-12-13T23:29:27.771Z,14.97
2018-12-13T23:32:00.448Z,15.13
2018-12-13T23:34:33.161Z,16.00
2018-12-13T23:37:06.516Z,15.87
2018-12-13T23:39:39.340Z,13.53
2018-12-13T23:42:12.003Z,14.93
2018-12-13T23:44:44.449Z,14.33
2018-12-13T23:47:17.582Z,16.13
2018-12-13T23:49:50.247Z,15.60
2018-12-13T23:52:23.418Z,15.77
2018-12-13T23:54:56.814Z,15.53
2018-12-13T23:57:29.412Z,16.50
